This is the latest recevied weather packets stored in our database for station/object CA4LJZ-10. If no packets are shown the sender has not sent any weather packets the latest 10 day(s).
| Time | Temp. | Humidity | Pressure | Rain* | Wind** | Luminosity | Snow |
|---|---|---|---|---|---|---|---|
| 1777444703 | 20° C | 48% | 954.5 hPa | - | - | - | - |
| 1777443802 | 19.44° C | 50% | 954.6 hPa | - | - | - | - |
| 1777442901 | 22.22° C | 43% | 955.2 hPa | - | - | - | - |
| 1777441999 | 22.22° C | 43% | 955.3 hPa | - | - | - | - |
| 1777441098 | 22.22° C | 45% | 955.2 hPa | - | - | - | - |
| 1777440221 | 22.78° C | 42% | 955.5 hPa | - | - | - | - |
| 1777439320 | 22.22° C | 42% | 955.5 hPa | - | - | - | - |
| 1777438419 | 21.67° C | 43% | 955.7 hPa | - | - | - | - |
| 1777437518 | 21.11° C | 44% | 955.8 hPa | - | - | - | - |
| 1777436617 | 20.56° C | 47% | 956 hPa | - | - | - | - |
| 1777435716 | 21.67° C | 44% | 955.8 hPa | - | - | - | - |
| 1777434814 | 21.67° C | 42% | 955.8 hPa | - | - | - | - |
| 1777433913 | 23.33° C | 38% | 955.9 hPa | - | - | - | - |
| 1777433013 | 23.33° C | 39% | 955.9 hPa | - | - | - | - |
| 1777432112 | 23.33° C | 41% | 955.9 hPa | - | - | - | - |
| 1777431211 | 23.33° C | 41% | 955.8 hPa | - | - | - | - |
| 1777430310 | 23.33° C | 40% | 955.5 hPa | - | - | - | - |
| 1777429409 | 22.78° C | 40% | 955.4 hPa | - | - | - | - |
| 1777428508 | 23.33° C | 39% | 955.1 hPa | - | - | - | - |
| 1777427606 | 24.44° C | 37% | 955 hPa | - | - | - | - |
| 1777426706 | 23.89° C | 37% | 955 hPa | - | - | - | - |
| 1777425805 | 23.89° C | 38% | 955 hPa | - | - | - | - |
| 1777424904 | 23.33° C | 38% | 955.2 hPa | - | - | - | - |
| 1777424003 | 22.22° C | 41% | 955.1 hPa | - | - | - | - |
| 1777423102 | 21.67° C | 42% | 955 hPa | - | - | - | - |
* Rain since midnight (hover to see other rain measurements)
** Current wind speed in m/s (hover to see current wind gust speed)